sensor_id;sensor_type;location;lat;lon;timestamp;temperature;humidity
78490;DHT22;67776;52.012;4.736;2023-05-19T00:01:08;10.71;77.96
78490;DHT22;67776;52.012;4.736;2023-05-19T00:03:34;10.68;78.35
78490;DHT22;67776;52.012;4.736;2023-05-19T00:06:05;10.68;78.71
78490;DHT22;67776;52.012;4.736;2023-05-19T00:08:33;10.71;78.44
78490;DHT22;67776;52.012;4.736;2023-05-19T00:11:00;10.50;78.95
78490;DHT22;67776;52.012;4.736;2023-05-19T00:13:26;10.46;79.34
78490;DHT22;67776;52.012;4.736;2023-05-19T00:15:52;10.46;78.81
78490;DHT22;67776;52.012;4.736;2023-05-19T00:18:17;10.22;79.71
78490;DHT22;67776;52.012;4.736;2023-05-19T00:20:43;10.32;79.13
78490;DHT22;67776;52.012;4.736;2023-05-19T00:23:09;10.09;79.53
78490;DHT22;67776;52.012;4.736;2023-05-19T00:25:35;10.25;79.01
78490;DHT22;67776;52.012;4.736;2023-05-19T00:28:00;10.21;79.06
78490;DHT22;67776;52.012;4.736;2023-05-19T00:30:27;10.12;79.38
78490;DHT22;67776;52.012;4.736;2023-05-19T00:32:53;10.22;78.96
78490;DHT22;67776;52.012;4.736;2023-05-19T00:35:19;10.23;78.92
78490;DHT22;67776;52.012;4.736;2023-05-19T00:37:44;10.18;79.02
78490;DHT22;67776;52.012;4.736;2023-05-19T00:40:10;10.15;79.48
78490;DHT22;67776;52.012;4.736;2023-05-19T00:42:35;10.13;79.55
78490;DHT22;67776;52.012;4.736;2023-05-19T00:45:00;10.18;79.42
78490;DHT22;67776;52.012;4.736;2023-05-19T00:47:26;10.12;79.45
78490;DHT22;67776;52.012;4.736;2023-05-19T00:49:51;9.98;79.95
78490;DHT22;67776;52.012;4.736;2023-05-19T00:52:16;10.05;80.03
78490;DHT22;67776;52.012;4.736;2023-05-19T00:54:43;10.13;79.64
78490;DHT22;67776;52.012;4.736;2023-05-19T00:57:09;10.13;79.76
78490;DHT22;67776;52.012;4.736;2023-05-19T00:59:35;9.83;80.99
78490;DHT22;67776;52.012;4.736;2023-05-19T01:02:00;9.97;80.47
78490;DHT22;67776;52.012;4.736;2023-05-19T01:04:27;9.84;80.58
78490;DHT22;67776;52.012;4.736;2023-05-19T01:06:55;9.94;79.94
78490;DHT22;67776;52.012;4.736;2023-05-19T01:09:21;10.01;79.60
78490;DHT22;67776;52.012;4.736;2023-05-19T01:11:47;9.77;79.95
78490;DHT22;67776;52.012;4.736;2023-05-19T01:14:13;9.91;79.82
78490;DHT22;67776;52.012;4.736;2023-05-19T01:16:53;9.88;80.14
78490;DHT22;67776;52.012;4.736;2023-05-19T01:25:30;9.81;80.08
78490;DHT22;67776;52.012;4.736;2023-05-19T01:30:52;9.78;80.14
78490;DHT22;67776;52.012;4.736;2023-05-19T01:33:19;9.67;80.46
78490;DHT22;67776;52.012;4.736;2023-05-19T01:35:47;9.81;79.95
78490;DHT22;67776;52.012;4.736;2023-05-19T01:38:15;9.76;80.26
78490;DHT22;67776;52.012;4.736;2023-05-19T01:40:42;9.51;80.88
78490;DHT22;67776;52.012;4.736;2023-05-19T01:43:10;9.67;80.53
78490;DHT22;67776;52.012;4.736;2023-05-19T01:45:37;9.69;80.43
78490;DHT22;67776;52.012;4.736;2023-05-19T01:48:03;9.77;80.25
78490;DHT22;67776;52.012;4.736;2023-05-19T01:50:31;9.74;79.88
78490;DHT22;67776;52.012;4.736;2023-05-19T01:52:57;9.76;80.04
78490;DHT22;67776;52.012;4.736;2023-05-19T01:55:22;9.74;79.91
78490;DHT22;67776;52.012;4.736;2023-05-19T02:00:50;9.59;80.72
78490;DHT22;67776;52.012;4.736;2023-05-19T02:08:56;9.46;82.02
78490;DHT22;67776;52.012;4.736;2023-05-19T02:11:34;9.50;81.37
78490;DHT22;67776;52.012;4.736;2023-05-19T02:14:07;9.46;81.75
78490;DHT22;67776;52.012;4.736;2023-05-19T02:16:33;9.49;81.65
78490;DHT22;67776;52.012;4.736;2023-05-19T02:19:00;9.42;82.35
78490;DHT22;67776;52.012;4.736;2023-05-19T02:21:25;9.40;82.21
78490;DHT22;67776;52.012;4.736;2023-05-19T02:23:51;9.46;82.02
78490;DHT22;67776;52.012;4.736;2023-05-19T02:26:16;9.30;82.51
78490;DHT22;67776;52.012;4.736;2023-05-19T02:28:41;9.39;82.10
78490;DHT22;67776;52.012;4.736;2023-05-19T02:31:07;9.36;82.19
78490;DHT22;67776;52.012;4.736;2023-05-19T02:33:34;9.36;82.35
78490;DHT22;67776;52.012;4.736;2023-05-19T02:36:00;9.40;82.31
78490;DHT22;67776;52.012;4.736;2023-05-19T02:38:25;9.43;82.41
78490;DHT22;67776;52.012;4.736;2023-05-19T02:40:51;9.39;82.84
78490;DHT22;67776;52.012;4.736;2023-05-19T02:43:17;9.26;82.75
78490;DHT22;67776;52.012;4.736;2023-05-19T02:45:43;9.25;82.77
78490;DHT22;67776;52.012;4.736;2023-05-19T02:48:08;9.28;82.45
78490;DHT22;67776;52.012;4.736;2023-05-19T02:50:33;9.36;82.18
78490;DHT22;67776;52.012;4.736;2023-05-19T02:52:59;9.26;82.92
78490;DHT22;67776;52.012;4.736;2023-05-19T02:55:24;9.32;82.45
78490;DHT22;67776;52.012;4.736;2023-05-19T02:57:49;9.35;82.53
78490;DHT22;67776;52.012;4.736;2023-05-19T03:00:15;9.29;82.85
78490;DHT22;67776;52.012;4.736;2023-05-19T03:02:40;9.28;83.19
78490;DHT22;67776;52.012;4.736;2023-05-19T03:05:08;9.21;83.29
78490;DHT22;67776;52.012;4.736;2023-05-19T03:07:34;9.19;83.32
78490;DHT22;67776;52.012;4.736;2023-05-19T03:09:59;9.18;83.31
78490;DHT22;67776;52.012;4.736;2023-05-19T03:12:28;9.25;83.32
78490;DHT22;67776;52.012;4.736;2023-05-19T03:14:53;9.26;83.18
78490;DHT22;67776;52.012;4.736;2023-05-19T03:17:18;9.16;83.84
78490;DHT22;67776;52.012;4.736;2023-05-19T03:19:44;9.18;83.47
78490;DHT22;67776;52.012;4.736;2023-05-19T03:22:09;9.19;83.38
78490;DHT22;67776;52.012;4.736;2023-05-19T03:24:34;9.18;83.42
78490;DHT22;67776;52.012;4.736;2023-05-19T03:27:00;9.21;83.35
78490;DHT22;67776;52.012;4.736;2023-05-19T03:29:26;9.18;83.69
78490;DHT22;67776;52.012;4.736;2023-05-19T03:31:51;9.21;83.21
78490;DHT22;67776;52.012;4.736;2023-05-19T03:34:17;9.02;84.05
78490;DHT22;67776;52.012;4.736;2023-05-19T03:36:42;9.07;84.13
78490;DHT22;67776;52.012;4.736;2023-05-19T03:39:09;9.07;83.64
78490;DHT22;67776;52.012;4.736;2023-05-19T03:41:35;9.08;83.66
78490;DHT22;67776;52.012;4.736;2023-05-19T03:44:00;9.14;83.67
78490;DHT22;67776;52.012;4.736;2023-05-19T03:46:25;9.10;83.95
78490;DHT22;67776;52.012;4.736;2023-05-19T03:48:51;9.11;83.63
78490;DHT22;67776;52.012;4.736;2023-05-19T03:51:16;9.07;84.08
78490;DHT22;67776;52.012;4.736;2023-05-19T03:53:41;9.07;84.22
78490;DHT22;67776;52.012;4.736;2023-05-19T03:56:08;9.08;83.99
78490;DHT22;67776;52.012;4.736;2023-05-19T03:58:37;9.08;83.95
78490;DHT22;67776;52.012;4.736;2023-05-19T04:01:04;9.05;84.24
78490;DHT22;67776;52.012;4.736;2023-05-19T04:03:30;9.07;84.35
78490;DHT22;67776;52.012;4.736;2023-05-19T04:05:55;9.08;83.98
78490;DHT22;67776;52.012;4.736;2023-05-19T04:08:20;9.00;84.41
78490;DHT22;67776;52.012;4.736;2023-05-19T04:10:46;8.92;85.14
78490;DHT22;67776;52.012;4.736;2023-05-19T04:13:11;8.91;85.15
78490;DHT22;67776;52.012;4.736;2023-05-19T04:15:36;8.84;85.42
78490;DHT22;67776;52.012;4.736;2023-05-19T04:18:03;8.84;85.16
78490;DHT22;67776;52.012;4.736;2023-05-19T04:20:28;8.91;85.38
78490;DHT22;67776;52.012;4.736;2023-05-19T04:22:53;8.91;85.19
78490;DHT22;67776;52.012;4.736;2023-05-19T04:25:19;8.89;85.59
78490;DHT22;67776;52.012;4.736;2023-05-19T04:27:44;9.02;85.34
78490;DHT22;67776;52.012;4.736;2023-05-19T04:30:10;9.01;85.46
78490;DHT22;67776;52.012;4.736;2023-05-19T04:32:36;9.05;84.90
78490;DHT22;67776;52.012;4.736;2023-05-19T04:35:02;8.98;85.32
78490;DHT22;67776;52.012;4.736;2023-05-19T04:37:28;9.04;85.38
78490;DHT22;67776;52.012;4.736;2023-05-19T04:39:54;8.98;85.63
78490;DHT22;67776;52.012;4.736;2023-05-19T04:42:19;9.08;85.40
78490;DHT22;67776;52.012;4.736;2023-05-19T04:44:45;9.05;85.94
78490;DHT22;67776;52.012;4.736;2023-05-19T04:47:13;9.15;85.30
78490;DHT22;67776;52.012;4.736;2023-05-19T04:49:39;9.19;85.44
78490;DHT22;67776;52.012;4.736;2023-05-19T04:52:09;9.29;84.90
78490;DHT22;67776;52.012;4.736;2023-05-19T04:54:35;9.30;84.70
78490;DHT22;67776;52.012;4.736;2023-05-19T04:57:01;9.33;84.68
78490;DHT22;67776;52.012;4.736;2023-05-19T04:59:27;9.28;85.10
78490;DHT22;67776;52.012;4.736;2023-05-19T05:01:52;9.22;84.99
78490;DHT22;67776;52.012;4.736;2023-05-19T05:04:18;9.23;85.19
78490;DHT22;67776;52.012;4.736;2023-05-19T05:06:44;9.11;85.61
78490;DHT22;67776;52.012;4.736;2023-05-19T05:09:13;9.16;85.22
78490;DHT22;67776;52.012;4.736;2023-05-19T05:11:39;9.25;85.20
78490;DHT22;67776;52.012;4.736;2023-05-19T05:14:04;9.29;85.70
78490;DHT22;67776;52.012;4.736;2023-05-19T05:16:30;9.22;85.99
78490;DHT22;67776;52.012;4.736;2023-05-19T05:18:56;9.23;85.54
78490;DHT22;67776;52.012;4.736;2023-05-19T05:21:22;9.35;85.62
78490;DHT22;67776;52.012;4.736;2023-05-19T05:23:49;9.32;85.82
78490;DHT22;67776;52.012;4.736;2023-05-19T05:26:18;9.33;85.40
78490;DHT22;67776;52.012;4.736;2023-05-19T05:28:45;9.40;85.42
78490;DHT22;67776;52.012;4.736;2023-05-19T05:31:11;9.33;85.55
78490;DHT22;67776;52.012;4.736;2023-05-19T05:33:37;9.35;85.74
78490;DHT22;67776;52.012;4.736;2023-05-19T05:36:03;9.39;85.90
78490;DHT22;67776;52.012;4.736;2023-05-19T05:38:28;9.50;85.52
78490;DHT22;67776;52.012;4.736;2023-05-19T05:40:54;9.66;85.14
78490;DHT22;67776;52.012;4.736;2023-05-19T05:43:19;9.77;84.68
78490;DHT22;67776;52.012;4.736;2023-05-19T05:45:44;9.78;84.45
78490;DHT22;67776;52.012;4.736;2023-05-19T05:48:10;9.80;84.93
78490;DHT22;67776;52.012;4.736;2023-05-19T05:50:36;9.85;84.54
78490;DHT22;67776;52.012;4.736;2023-05-19T05:53:02;9.85;84.13
78490;DHT22;67776;52.012;4.736;2023-05-19T05:55:28;9.85;83.81
78490;DHT22;67776;52.012;4.736;2023-05-19T05:57:53;9.94;84.21
78490;DHT22;67776;52.012;4.736;2023-05-19T06:00:21;10.02;83.71
78490;DHT22;67776;52.012;4.736;2023-05-19T06:02:48;10.08;83.63
78490;DHT22;67776;52.012;4.736;2023-05-19T06:05:14;9.98;83.34
78490;DHT22;67776;52.012;4.736;2023-05-19T06:07:40;10.08;83.25
78490;DHT22;67776;52.012;4.736;2023-05-19T06:10:06;10.23;82.56
78490;DHT22;67776;52.012;4.736;2023-05-19T06:12:33;10.26;82.35
78490;DHT22;67776;52.012;4.736;2023-05-19T06:14:59;10.33;82.48
78490;DHT22;67776;52.012;4.736;2023-05-19T06:17:26;10.36;82.22
78490;DHT22;67776;52.012;4.736;2023-05-19T06:19:51;10.43;81.95
78490;DHT22;67776;52.012;4.736;2023-05-19T06:22:16;10.52;81.59
78490;DHT22;67776;52.012;4.736;2023-05-19T06:24:42;10.59;82.27
78490;DHT22;67776;52.012;4.736;2023-05-19T06:27:07;10.73;81.81
78490;DHT22;67776;52.012;4.736;2023-05-19T06:29:32;10.78;81.25
78490;DHT22;67776;52.012;4.736;2023-05-19T06:31:58;10.93;81.03
78490;DHT22;67776;52.012;4.736;2023-05-19T06:34:23;11.03;80.55
78490;DHT22;67776;52.012;4.736;2023-05-19T06:36:48;11.10;79.87
78490;DHT22;67776;52.012;4.736;2023-05-19T06:39:14;11.12;79.79
78490;DHT22;67776;52.012;4.736;2023-05-19T06:41:39;11.04;79.98
78490;DHT22;67776;52.012;4.736;2023-05-19T06:44:05;11.14;80.14
78490;DHT22;67776;52.012;4.736;2023-05-19T06:46:31;11.21;79.40
78490;DHT22;67776;52.012;4.736;2023-05-19T06:48:56;11.29;79.93
78490;DHT22;67776;52.012;4.736;2023-05-19T06:51:21;11.40;79.26
78490;DHT22;67776;52.012;4.736;2023-05-19T06:53:47;11.52;78.99
78490;DHT22;67776;52.012;4.736;2023-05-19T06:56:13;11.44;78.21
78490;DHT22;67776;52.012;4.736;2023-05-19T06:58:40;11.55;77.76
78490;DHT22;67776;52.012;4.736;2023-05-19T07:01:05;11.73;77.58
78490;DHT22;67776;52.012;4.736;2023-05-19T07:03:30;11.88;77.74
78490;DHT22;67776;52.012;4.736;2023-05-19T07:05:56;11.87;77.34
78490;DHT22;67776;52.012;4.736;2023-05-19T07:08:21;11.90;77.47
78490;DHT22;67776;52.012;4.736;2023-05-19T07:10:47;12.06;77.37
78490;DHT22;67776;52.012;4.736;2023-05-19T07:13:12;12.14;76.15
78490;DHT22;67776;52.012;4.736;2023-05-19T07:15:37;12.20;75.93
78490;DHT22;67776;52.012;4.736;2023-05-19T07:18:03;12.39;75.80
78490;DHT22;67776;52.012;4.736;2023-05-19T07:20:29;12.45;75.25
78490;DHT22;67776;52.012;4.736;2023-05-19T07:22:54;12.40;75.39
78490;DHT22;67776;52.012;4.736;2023-05-19T07:25:20;12.60;74.63
78490;DHT22;67776;52.012;4.736;2023-05-19T07:27:45;12.73;74.29
78490;DHT22;67776;52.012;4.736;2023-05-19T07:30:11;12.81;74.06
78490;DHT22;67776;52.012;4.736;2023-05-19T07:32:36;12.87;74.20
78490;DHT22;67776;52.012;4.736;2023-05-19T07:35:02;12.91;75.06
78490;DHT22;67776;52.012;4.736;2023-05-19T07:37:27;13.00;72.90
78490;DHT22;67776;52.012;4.736;2023-05-19T07:39:53;13.12;73.40
78490;DHT22;67776;52.012;4.736;2023-05-19T07:42:18;13.24;73.06
78490;DHT22;67776;52.012;4.736;2023-05-19T07:44:43;13.29;72.79
78490;DHT22;67776;52.012;4.736;2023-05-19T07:47:09;13.45;73.28
78490;DHT22;67776;52.012;4.736;2023-05-19T07:49:34;13.58;71.41
78490;DHT22;67776;52.012;4.736;2023-05-19T07:52:00;13.58;71.05
78490;DHT22;67776;52.012;4.736;2023-05-19T07:54:25;13.74;71.47
78490;DHT22;67776;52.012;4.736;2023-05-19T07:56:50;13.93;71.21
78490;DHT22;67776;52.012;4.736;2023-05-19T07:59:15;14.08;71.08
78490;DHT22;67776;52.012;4.736;2023-05-19T08:01:41;14.22;70.21
78490;DHT22;67776;52.012;4.736;2023-05-19T08:04:06;14.33;68.43
78490;DHT22;67776;52.012;4.736;2023-05-19T08:06:31;14.36;66.96
78490;DHT22;67776;52.012;4.736;2023-05-19T08:08:57;14.46;66.65
78490;DHT22;67776;52.012;4.736;2023-05-19T08:11:22;14.53;66.02
78490;DHT22;67776;52.012;4.736;2023-05-19T08:13:48;14.48;65.85
78490;DHT22;67776;52.012;4.736;2023-05-19T08:16:14;14.69;66.69
78490;DHT22;67776;52.012;4.736;2023-05-19T08:18:40;14.93;66.24
78490;DHT22;67776;52.012;4.736;2023-05-19T08:21:05;15.03;65.63
78490;DHT22;67776;52.012;4.736;2023-05-19T08:23:31;15.20;63.93
78490;DHT22;67776;52.012;4.736;2023-05-19T08:25:56;15.38;63.75
78490;DHT22;67776;52.012;4.736;2023-05-19T08:28:22;15.59;62.49
78490;DHT22;67776;52.012;4.736;2023-05-19T08:30:49;15.67;62.64
78490;DHT22;67776;52.012;4.736;2023-05-19T08:33:14;15.74;61.21
78490;DHT22;67776;52.012;4.736;2023-05-19T08:35:40;15.76;60.11
78490;DHT22;67776;52.012;4.736;2023-05-19T08:38:05;16.14;60.78
78490;DHT22;67776;52.012;4.736;2023-05-19T08:40:32;15.90;59.63
78490;DHT22;67776;52.012;4.736;2023-05-19T08:42:58;16.08;60.81
78490;DHT22;67776;52.012;4.736;2023-05-19T08:45:24;16.18;58.94
78490;DHT22;67776;52.012;4.736;2023-05-19T08:47:50;16.86;57.20
78490;DHT22;67776;52.012;4.736;2023-05-19T08:50:23;16.89;58.34
78490;DHT22;67776;52.012;4.736;2023-05-19T08:53:11;17.49;55.85
78490;DHT22;67776;52.012;4.736;2023-05-19T08:55:52;17.53;55.30
78490;DHT22;67776;52.012;4.736;2023-05-19T08:58:20;17.59;54.87
78490;DHT22;67776;52.012;4.736;2023-05-19T09:00:47;18.33;51.08
78490;DHT22;67776;52.012;4.736;2023-05-19T09:03:14;18.27;51.35
78490;DHT22;67776;52.012;4.736;2023-05-19T09:05:40;18.75;51.79
78490;DHT22;67776;52.012;4.736;2023-05-19T09:08:06;18.01;51.22
78490;DHT22;67776;52.012;4.736;2023-05-19T09:10:31;18.61;51.32
78490;DHT22;67776;52.012;4.736;2023-05-19T09:12:57;19.25;49.19
78490;DHT22;67776;52.012;4.736;2023-05-19T09:15:25;18.20;49.81
78490;DHT22;67776;52.012;4.736;2023-05-19T09:18:04;18.31;50.35
78490;DHT22;67776;52.012;4.736;2023-05-19T09:20:30;18.63;49.54
78490;DHT22;67776;52.012;4.736;2023-05-19T09:22:56;19.16;48.95
78490;DHT22;67776;52.012;4.736;2023-05-19T09:25:24;19.55;48.36
78490;DHT22;67776;52.012;4.736;2023-05-19T09:27:49;19.99;46.78
78490;DHT22;67776;52.012;4.736;2023-05-19T09:30:18;20.00;45.78
78490;DHT22;67776;52.012;4.736;2023-05-19T09:32:44;19.86;45.44
78490;DHT22;67776;52.012;4.736;2023-05-19T09:35:11;19.24;47.43
78490;DHT22;67776;52.012;4.736;2023-05-19T09:37:39;20.06;45.65
78490;DHT22;67776;52.012;4.736;2023-05-19T09:40:07;19.70;47.27
78490;DHT22;67776;52.012;4.736;2023-05-19T09:42:36;20.61;44.24
78490;DHT22;67776;52.012;4.736;2023-05-19T09:45:02;20.30;44.54
78490;DHT22;67776;52.012;4.736;2023-05-19T09:47:34;20.07;43.90
78490;DHT22;67776;52.012;4.736;2023-05-19T09:50:04;19.69;45.36
78490;DHT22;67776;52.012;4.736;2023-05-19T09:52:30;19.92;43.81
78490;DHT22;67776;52.012;4.736;2023-05-19T09:54:57;19.54;44.86
78490;DHT22;67776;52.012;4.736;2023-05-19T09:57:25;20.17;43.53
78490;DHT22;67776;52.012;4.736;2023-05-19T09:59:54;20.86;42.98
78490;DHT22;67776;52.012;4.736;2023-05-19T10:02:22;20.40;42.86
78490;DHT22;67776;52.012;4.736;2023-05-19T10:04:51;20.55;41.94
78490;DHT22;67776;52.012;4.736;2023-05-19T10:07:18;20.59;44.43
78490;DHT22;67776;52.012;4.736;2023-05-19T10:09:43;19.66;43.03
78490;DHT22;67776;52.012;4.736;2023-05-19T10:12:09;19.80;44.63
78490;DHT22;67776;52.012;4.736;2023-05-19T10:14:35;20.28;44.43
78490;DHT22;67776;52.012;4.736;2023-05-19T10:17:01;19.66;44.05
78490;DHT22;67776;52.012;4.736;2023-05-19T10:19:27;20.06;43.20
78490;DHT22;67776;52.012;4.736;2023-05-19T10:21:53;20.44;43.32
78490;DHT22;67776;52.012;4.736;2023-05-19T10:24:19;20.54;43.41
78490;DHT22;67776;52.012;4.736;2023-05-19T10:26:57;20.92;42.35
78490;DHT22;67776;52.012;4.736;2023-05-19T10:29:27;20.54;42.08
78490;DHT22;67776;52.012;4.736;2023-05-19T10:31:57;20.17;43.43
78490;DHT22;67776;52.012;4.736;2023-05-19T10:37:30;20.51;42.34
78490;DHT22;67776;52.012;4.736;2023-05-19T10:40:10;21.52;42.46
78490;DHT22;67776;52.012;4.736;2023-05-19T10:42:56;21.26;40.99
78490;DHT22;67776;52.012;4.736;2023-05-19T10:45:27;21.41;41.24
78490;DHT22;67776;52.012;4.736;2023-05-19T10:47:53;20.92;40.09
78490;DHT22;67776;52.012;4.736;2023-05-19T10:50:19;21.50;42.39
78490;DHT22;67776;52.012;4.736;2023-05-19T10:52:51;22.02;42.05
78490;DHT22;67776;52.012;4.736;2023-05-19T10:55:43;22.20;41.80
78490;DHT22;67776;52.012;4.736;2023-05-19T10:58:10;21.31;41.15
78490;DHT22;67776;52.012;4.736;2023-05-19T11:00:37;20.73;44.36
78490;DHT22;67776;52.012;4.736;2023-05-19T11:03:13;22.40;40.56
78490;DHT22;67776;52.012;4.736;2023-05-19T11:05:39;21.19;40.93
78490;DHT22;67776;52.012;4.736;2023-05-19T11:08:05;22.30;38.90
78490;DHT22;67776;52.012;4.736;2023-05-19T11:10:32;21.72;41.48
78490;DHT22;67776;52.012;4.736;2023-05-19T11:12:58;22.17;38.75
78490;DHT22;67776;52.012;4.736;2023-05-19T11:15:27;23.15;35.91
78490;DHT22;67776;52.012;4.736;2023-05-19T11:17:53;23.49;36.80
78490;DHT22;67776;52.012;4.736;2023-05-19T11:20:21;21.59;38.03
78490;DHT22;67776;52.012;4.736;2023-05-19T11:23:13;22.09;39.42
78490;DHT22;67776;52.012;4.736;2023-05-19T11:25:47;22.81;36.60
78490;DHT22;67776;52.012;4.736;2023-05-19T11:28:17;24.05;35.38
78490;DHT22;67776;52.012;4.736;2023-05-19T11:30:45;23.43;37.20
78490;DHT22;67776;52.012;4.736;2023-05-19T11:33:11;23.50;39.79
78490;DHT22;67776;52.012;4.736;2023-05-19T11:35:38;23.72;37.13
78490;DHT22;67776;52.012;4.736;2023-05-19T11:38:04;24.26;33.72
78490;DHT22;67776;52.012;4.736;2023-05-19T11:40:29;23.50;36.20
78490;DHT22;67776;52.012;4.736;2023-05-19T11:42:55;23.23;34.40
78490;DHT22;67776;52.012;4.736;2023-05-19T11:45:24;24.25;34.56
78490;DHT22;67776;52.012;4.736;2023-05-19T11:47:50;23.36;35.44
78490;DHT22;67776;52.012;4.736;2023-05-19T11:50:15;22.64;36.97
78490;DHT22;67776;52.012;4.736;2023-05-19T11:52:44;23.00;39.86
78490;DHT22;67776;52.012;4.736;2023-05-19T11:55:17;24.30;34.68
78490;DHT22;67776;52.012;4.736;2023-05-19T11:57:59;24.26;34.59
78490;DHT22;67776;52.012;4.736;2023-05-19T12:00:27;23.68;35.29
78490;DHT22;67776;52.012;4.736;2023-05-19T12:02:52;23.98;35.41
78490;DHT22;67776;52.012;4.736;2023-05-19T12:05:25;23.33;37.80
78490;DHT22;67776;52.012;4.736;2023-05-19T12:07:51;22.52;38.45
78490;DHT22;67776;52.012;4.736;2023-05-19T12:10:21;21.68;39.27
78490;DHT22;67776;52.012;4.736;2023-05-19T12:12:47;23.53;37.03
78490;DHT22;67776;52.012;4.736;2023-05-19T12:15:13;23.03;37.48
78490;DHT22;67776;52.012;4.736;2023-05-19T12:17:40;23.70;36.41
78490;DHT22;67776;52.012;4.736;2023-05-19T12:20:06;24.05;35.24
78490;DHT22;67776;52.012;4.736;2023-05-19T12:22:33;24.60;34.05
78490;DHT22;67776;52.012;4.736;2023-05-19T12:24:58;23.75;35.69
78490;DHT22;67776;52.012;4.736;2023-05-19T12:27:24;23.50;38.39
78490;DHT22;67776;52.012;4.736;2023-05-19T12:29:54;24.25;35.49
78490;DHT22;67776;52.012;4.736;2023-05-19T12:32:23;24.65;35.33
78490;DHT22;67776;52.012;4.736;2023-05-19T12:34:50;24.29;36.19
78490;DHT22;67776;52.012;4.736;2023-05-19T12:37:15;24.72;37.15
78490;DHT22;67776;52.012;4.736;2023-05-19T12:39:41;24.44;37.16
78490;DHT22;67776;52.012;4.736;2023-05-19T12:42:08;24.51;37.21
78490;DHT22;67776;52.012;4.736;2023-05-19T12:44:37;26.01;33.22
78490;DHT22;67776;52.012;4.736;2023-05-19T12:47:04;25.51;33.56
78490;DHT22;67776;52.012;4.736;2023-05-19T12:49:31;24.89;34.30
78490;DHT22;67776;52.012;4.736;2023-05-19T12:52:00;24.81;35.50
78490;DHT22;67776;52.012;4.736;2023-05-19T12:54:25;24.74;36.61
78490;DHT22;67776;52.012;4.736;2023-05-19T12:56:51;25.88;32.77
78490;DHT22;67776;52.012;4.736;2023-05-19T12:59:25;24.47;35.85
78490;DHT22;67776;52.012;4.736;2023-05-19T13:01:57;24.67;35.90
78490;DHT22;67776;52.012;4.736;2023-05-19T13:04:27;23.53;37.68
78490;DHT22;67776;52.012;4.736;2023-05-19T13:06:53;24.78;34.57
78490;DHT22;67776;52.012;4.736;2023-05-19T13:09:19;26.42;32.09
78490;DHT22;67776;52.012;4.736;2023-05-19T13:11:45;25.34;33.69
78490;DHT22;67776;52.012;4.736;2023-05-19T13:14:15;24.37;37.46
78490;DHT22;67776;52.012;4.736;2023-05-19T13:16:43;25.81;33.08
78490;DHT22;67776;52.012;4.736;2023-05-19T13:19:10;24.23;35.00
78490;DHT22;67776;52.012;4.736;2023-05-19T13:21:36;24.88;35.56
78490;DHT22;67776;52.012;4.736;2023-05-19T13:24:01;24.57;34.66
78490;DHT22;67776;52.012;4.736;2023-05-19T13:26:28;24.19;37.10
78490;DHT22;67776;52.012;4.736;2023-05-19T13:28:53;26.14;33.88
78490;DHT22;67776;52.012;4.736;2023-05-19T13:31:19;25.46;35.64
78490;DHT22;67776;52.012;4.736;2023-05-19T13:33:44;25.51;33.19
78490;DHT22;67776;52.012;4.736;2023-05-19T13:36:09;24.67;34.89
78490;DHT22;67776;52.012;4.736;2023-05-19T13:38:35;23.95;35.67
78490;DHT22;67776;52.012;4.736;2023-05-19T13:41:00;24.82;34.86
78490;DHT22;67776;52.012;4.736;2023-05-19T13:43:26;23.30;37.38
78490;DHT22;67776;52.012;4.736;2023-05-19T13:45:51;22.95;37.13
78490;DHT22;67776;52.012;4.736;2023-05-19T13:48:16;24.34;36.48
78490;DHT22;67776;52.012;4.736;2023-05-19T13:50:42;22.87;37.83
78490;DHT22;67776;52.012;4.736;2023-05-19T13:53:07;23.58;36.64
78490;DHT22;67776;52.012;4.736;2023-05-19T13:55:33;24.70;34.90
78490;DHT22;67776;52.012;4.736;2023-05-19T13:57:58;25.75;34.70
78490;DHT22;67776;52.012;4.736;2023-05-19T14:00:24;25.51;34.32
78490;DHT22;67776;52.012;4.736;2023-05-19T14:02:49;25.33;33.71
78490;DHT22;67776;52.012;4.736;2023-05-19T14:05:14;25.37;33.34
78490;DHT22;67776;52.012;4.736;2023-05-19T14:07:40;24.63;34.64
78490;DHT22;67776;52.012;4.736;2023-05-19T14:10:06;26.16;32.95
78490;DHT22;67776;52.012;4.736;2023-05-19T14:12:32;24.72;34.10
78490;DHT22;67776;52.012;4.736;2023-05-19T14:14:59;24.12;35.22
78490;DHT22;67776;52.012;4.736;2023-05-19T14:17:26;24.59;35.02
78490;DHT22;67776;52.012;4.736;2023-05-19T14:19:52;25.50;33.70
78490;DHT22;67776;52.012;4.736;2023-05-19T14:22:17;24.26;35.76
78490;DHT22;67776;52.012;4.736;2023-05-19T14:24:43;25.60;33.60
78490;DHT22;67776;52.012;4.736;2023-05-19T14:27:09;26.12;33.34
78490;DHT22;67776;52.012;4.736;2023-05-19T14:29:34;25.82;33.16
78490;DHT22;67776;52.012;4.736;2023-05-19T14:31:59;25.20;34.03
78490;DHT22;67776;52.012;4.736;2023-05-19T14:34:26;25.87;32.74
78490;DHT22;67776;52.012;4.736;2023-05-19T14:36:52;25.26;32.47
78490;DHT22;67776;52.012;4.736;2023-05-19T14:39:17;23.34;36.74
78490;DHT22;67776;52.012;4.736;2023-05-19T14:41:42;24.81;35.91
78490;DHT22;67776;52.012;4.736;2023-05-19T14:44:08;25.14;34.67
78490;DHT22;67776;52.012;4.736;2023-05-19T14:46:33;24.87;34.91
78490;DHT22;67776;52.012;4.736;2023-05-19T14:48:58;25.20;34.30
78490;DHT22;67776;52.012;4.736;2023-05-19T14:51:24;24.06;35.67
78490;DHT22;67776;52.012;4.736;2023-05-19T14:53:49;23.95;36.03
78490;DHT22;67776;52.012;4.736;2023-05-19T14:56:14;24.89;34.20
78490;DHT22;67776;52.012;4.736;2023-05-19T14:58:40;24.85;33.13
78490;DHT22;67776;52.012;4.736;2023-05-19T15:01:05;22.79;37.75
78490;DHT22;67776;52.012;4.736;2023-05-19T15:03:31;22.24;37.61
78490;DHT22;67776;52.012;4.736;2023-05-19T15:05:56;22.98;36.09
78490;DHT22;67776;52.012;4.736;2023-05-19T15:08:22;23.24;36.25
78490;DHT22;67776;52.012;4.736;2023-05-19T15:10:48;22.30;37.94
78490;DHT22;67776;52.012;4.736;2023-05-19T15:13:13;22.34;38.77
78490;DHT22;67776;52.012;4.736;2023-05-19T15:15:39;22.52;37.80
78490;DHT22;67776;52.012;4.736;2023-05-19T15:18:04;23.36;36.32
78490;DHT22;67776;52.012;4.736;2023-05-19T15:20:30;23.57;36.98
78490;DHT22;67776;52.012;4.736;2023-05-19T15:22:55;23.00;38.33
78490;DHT22;67776;52.012;4.736;2023-05-19T15:25:20;21.96;40.08
78490;DHT22;67776;52.012;4.736;2023-05-19T15:27:45;22.14;39.39
78490;DHT22;67776;52.012;4.736;2023-05-19T15:30:11;21.71;38.69
78490;DHT22;67776;52.012;4.736;2023-05-19T15:32:37;22.10;39.11
78490;DHT22;67776;52.012;4.736;2023-05-19T15:35:02;22.07;38.93
78490;DHT22;67776;52.012;4.736;2023-05-19T15:37:27;21.10;40.97
78490;DHT22;67776;52.012;4.736;2023-05-19T15:39:53;21.19;42.87
78490;DHT22;67776;52.012;4.736;2023-05-19T15:42:19;21.89;39.39
78490;DHT22;67776;52.012;4.736;2023-05-19T15:44:44;21.38;41.02
78490;DHT22;67776;52.012;4.736;2023-05-19T15:47:10;21.57;40.35
78490;DHT22;67776;52.012;4.736;2023-05-19T15:49:35;20.67;40.67
78490;DHT22;67776;52.012;4.736;2023-05-19T15:52:00;20.86;42.67